Hi'Ialakai — WTEY — position and weather

sailwx.info

Track history (hours):
 
Tides and Currents Weather Stations Pressure Air Temp Water Temp Dewpoint Dewpoint Depression Visibility Wind Speed Wind Dir Waves Ship Positions

Oceanographic research ship Hi'Ialakai (USA)

Detailed information on ship capabilities available from University of Delaware's Ocean Information Center.

Last reported at 2017-Apr-16 22:50 UTC. Time now 2017-Apr-23 07:56 UTC.
Position N 14°12' E 171°12'.

Type: Passenger vessel. MMSI: 368926089.

Wind from 100 at 16 knots

Barometer 1015.9 mb
Air temperature 29.8 ° C
Water temperature 27.7 ° C

Date/timePositionNaut miles runAvg speedWind from/ knotsBaromVisibWave heightAir tempDewpointWater temp
2017-Apr-16 22:50N 14°12' E 171°12'8 8.5 100 / 161015.9 29.8 27.7
2017-Apr-16 21:51N 14°06' E 171°18'8 8.5 100 / 171016.0 29.7 27.6
2017-Apr-16 20:52N 14°00' E 171°24'1313.6 090 / 171015.7 29.3 27.6
2017-Apr-16 19:53N 13°48' E 171°30'8 8.5 110 / 161015.2 29.0 27.6
2017-Apr-16 18:54N 13°42' E 171°36'8 9.3 110 / 161014.8 27.0 27.7
2017-Apr-16 18:00N 13°36' E 171°42'0 0.0 100 / 181012.710.8 27.024.3-27.7
2017-Apr-16 17:55N 13°36' E 171°42'1313.3 090 / 171014.1 27.8 27.7
2017-Apr-16 16:56N 13°30' E 171°54'8 8.4 090 / 171013.8 28.1 27.7
2017-Apr-16 15:56N 13°24' E 172°00'1313.6 080 / 181013.5 27.6 27.8
2017-Apr-16 14:57N 13°12' E 172°06'8 8.5 100 / 161013.5 27.9 27.8
2017-Apr-16 13:58N 13°06' E 172°12'8 8.5 100 / 171013.7 27.6 27.8
2017-Apr-16 12:59N 13°00' E 172°18'1313.6 100 / 171013.9 28.3 27.9
2017-Apr-16 12:00N 12°48' E 172°24'0 0.0 090 / 191012.6 5.4 27.423.4-27.9
2017-Apr-16 11:46N 12°48' E 172°24'8 8.5 090 / 181014.1 28.2 27.9
2017-Apr-16 10:47N 12°42' E 172°30'1313.4 090 / 191014.3 28.2 27.9
2017-Apr-16 09:48N 12°36' E 172°42'8 8.5 090 / 191014.0 28.2 27.9
2017-Apr-16 08:49N 12°30' E 172°48'8 8.5 100 / 171013.6 28.3 27.9
2017-Apr-16 07:50N 12°24' E 172°54'1313.6 080 / 201013.0 28.2 28.0
2017-Apr-16 06:51N 12°12' E 173°00'8 8.5 090 / 201012.3 28.6 27.9
2017-Apr-16 05:52N 12°06' E 173°06'8 8.5 100 / 181011.8 29.3 27.9
2017-Apr-16 04:53N 12°00' E 173°12'8 8.5 080 / 201011.3 29.6 27.9
2017-Apr-16 03:54N 11°54' E 173°18'8 8.4 080 / 221011.3 29.5 27.9
2017-Apr-16 02:54N 11°48' E 173°24'1313.6 070 / 221011.3 29.2 27.9
2017-Apr-16 01:55N 11°36' E 173°30'8 8.5 080 / 211011.8 29.8 28.0
2017-Apr-16 00:56N 11°30' E 173°36'8 9.0 080 / 201012.6 29.6 28.0
2017-Apr-16 00:00N 11°24' E 173°42'8 8.1 090 / 191012.0 5.4 27.524.1-28.1
2017-Apr-15 22:58N 11°18' E 173°48'8 8.5 090 / 191014.2 30.0 27.9
2017-Apr-15 21:59N 11°12' E 173°54'1713.8 090 / 191014.3 29.7 27.9
2017-Apr-15 20:46N 11°00' E 174°06'8 8.6 090 / 201014.2 29.5 28.0
2017-Apr-15 19:47N 10°54' E 174°12'8 8.6 080 / 211013.8 29.0 28.1
2017-Apr-15 18:48N 10°48' E 174°18'1313.6 070 / 221013.1 28.5 28.1
2017-Apr-15 17:49N 10°36' E 174°24'8 8.6 070 / 211012.8 28.1 28.1
2017-Apr-15 16:50N 10°30' E 174°30'1313.2 080 / 221012.3 28.5 28.1
2017-Apr-15 15:50N 10°24' E 174°42'8 8.6 060 / 241011.9 28.5 28.2
2017-Apr-15 14:51N 10°18' E 174°48'8 8.6 070 / 221012.0 28.8 28.3
2017-Apr-15 13:52N 10°12' E 174°54'8 8.6 070 / 221012.2 28.3 28.3
2017-Apr-15 12:53N 10°06' E 175°00'1212.2 080 / 201012.6 28.7 28.4
2017-Apr-15 11:54N 09°54' E 175°00'1313.5 070 / 241013.1 29.1 28.7
2017-Apr-15 10:55N 09°48' E 175°12'8 8.6 070 / 221013.5 28.8 28.5
2017-Apr-15 09:56N 09°42' E 175°18'8 8.6 070 / 201013.7 28.8 28.7
2017-Apr-15 08:57N 09°36' E 175°24'8 8.6 070 / 201013.0 28.9 28.7
2017-Apr-15 07:58N 09°30' E 175°30'1313.6 070 / 211012.7 28.8 28.7
2017-Apr-15 06:59N 09°18' E 175°36'8 8.6 070 / 221012.2 28.8 28.8
2017-Apr-15 06:00N 09°12' E 175°42'0 0.0 060 / 211010.310.8 28.024.6-28.9
2017-Apr-15 05:59N 09°12' E 175°42'8 6.9 060 / 201011.9 29.0 28.9
2017-Apr-15 04:46N 09°06' E 175°48'1313.6 070 / 211011.2 29.3 28.9
2017-Apr-15 03:47N 08°54' E 175°54'8 8.6 070 / 201011.3 30.3 28.9
2017-Apr-15 02:48N 08°48' E 176°00'8 8.6 070 / 201011.5 30.0 29.0
2017-Apr-15 01:49N 08°42' E 176°06'8 8.6 070 / 211011.9 29.7 28.9
2017-Apr-15 00:50N 08°36' E 176°12'1316.0 070 / 211012.4 30.1 28.9
2017-Apr-15 00:00N 08°30' E 176°24'8 7.4 080 / 241011.7 5.4 28.024.6-28.8
2017-Apr-14 22:52N 08°24' E 176°30'1313.6 080 / 221013.8 29.9 28.8
2017-Apr-14 21:53N 08°12' E 176°36'8 8.6 070 / 231013.9 29.4 28.5
2017-Apr-14 20:54N 08°06' E 176°42'8 8.6 070 / 231014.3 29.3 28.4
2017-Apr-14 19:55N 08°00' E 176°48'8 8.4 070 / 241013.1 29.5 28.6
2017-Apr-14 18:55N 07°54' E 176°54'8 8.6 070 / 261012.1 29.1 28.5
2017-Apr-14 17:56N 07°48' E 177°00'8 8.6 060 / 261011.7 28.8 28.9
2017-Apr-14 16:57N 07°42' E 177°06'8 8.6 060 / 261010.7 28.6 28.9
2017-Apr-14 15:58N 07°36' E 177°12'1313.6 050 / 301010.5 27.4 28.9
2017-Apr-14 14:59N 07°24' E 177°18'8 8.6 070 / 251011.1 29.3 28.9
2017-Apr-14 14:00N 07°18' E 177°24'8 6.9 060 / 201011.4 26.3 28.9
2017-Apr-14 12:47N 07°12' E 177°30'810.8 080 / 251012.1 27.0 29.0
2017-Apr-14 12:00N 07°06' E 177°36'0 0.0 050 / 241010.6 5.4 26.525.1-29.2
2017-Apr-14 11:50N 07°06' E 177°36'8 8.9 050 / 231012.1 28.6 29.1
2017-Apr-14 10:53N 07°00' E 177°42'1313.6 070 / 221012.9 26.7 29.0
2017-Apr-14 09:54N 06°48' E 177°48'8 8.6 050 / 211013.0 28.6 29.0
2017-Apr-14 08:55N 06°42' E 177°54'8 8.6 070 / 161012.5 29.7 29.1
2017-Apr-14 07:56N 06°36' E 178°00'8 8.5 070 / 181012.0 29.7 29.1
2017-Apr-14 06:56N 06°30' E 178°06'8 9.1 080 / 161011.5 29.7 29.0
2017-Apr-14 06:00N 06°24' E 178°12'0 0.0 070 / 151009.410.8 29.026.3-29.0
2017-Apr-14 05:57N 06°24' E 178°12'1313.6 080 / 151010.9 29.8 29.0
2017-Apr-14 04:58N 06°12' E 178°18'8 8.6 060 / 181010.4 29.9 29.1
2017-Apr-14 03:59N 06°06' E 178°24'1311.0 060 / 181009.9 29.8 29.0
2017-Apr-14 02:46N 06°00' E 178°36'8 8.6 060 / 201009.9 30.0 28.9
2017-Apr-14 01:47N 05°54' E 178°42'1313.6 060 / 201010.5 30.2 28.9
2017-Apr-14 00:48N 05°42' E 178°48'17 8.6 060 / 221010.9 30.4 28.8
2017-Apr-13 22:50N 05°30' E 179°00'8 8.5 060 / 231011.8 30.1 28.7
2017-Apr-13 21:50N 05°24' E 179°06'8 8.6 060 / 231012.3 30.2 28.7
2017-Apr-13 20:51N 05°18' E 179°12'8 8.6 060 / 171012.5 29.7 28.7
2017-Apr-13 19:52N 05°12' E 179°18'1313.6 070 / 231012.1 29.3 28.6
2017-Apr-13 18:53N 05°00' E 179°24'8 9.6 060 / 201011.4 29.6 28.5
2017-Apr-13 18:00N 04°54' E 179°30'0 0.0 060 / 191009.510.8 28.525.1-28.5
2017-Apr-13 17:54N 04°54' E 179°30'8 8.6 060 / 181010.9 29.0 28.5
2017-Apr-13 16:55N 04°48' E 179°36'8 8.6 110 / 131010.6 28.7 28.7
2017-Apr-13 15:56N 04°42' E 179°42'8 8.6 070 / 121010.5 29.1 28.7
2017-Apr-13 14:57N 04°36' E 179°48'8 8.6 070 / 111010.4 29.1 28.7
2017-Apr-13 13:58N 04°30' E 179°54'1717.2 080 / 111010.8 28.9 28.7
2017-Apr-13 12:59N 04°18' W 179°54'8 8.6 070 / 111011.2 28.9 28.4
2017-Apr-13 12:00N 04°12' W 179°48'8 7.0 080 / 131011.9 29.1 28.4
2017-Apr-13 10:47N 04°06' W 179°42'1313.4 080 / 121012.7 29.0 28.4
2017-Apr-13 09:47N 03°54' W 179°36'1313.6 090 / 151012.4 29.0 28.5
2017-Apr-13 08:48N 03°48' W 179°24'8 8.6 090 / 171011.8 28.9 28.5
2017-Apr-13 07:49N 03°42' W 179°18'25 8.6 080 / 211011.4 28.9 28.5
2017-Apr-13 04:52N 03°24' W 179°00'1313.6 070 / 211010.1 29.2 28.5
2017-Apr-13 03:53N 03°12' W 178°54'25 8.3 090 / 191009.9 28.7 28.5
2017-Apr-13 00:50N 02°54' W 178°36'1720.4 110 / 161010.1 29.9 28.5
2017-Apr-13 00:00N 02°42' W 178°24'6 5.2 100 / 191009.5 5.4 27.325.5-28.3
2017-Apr-12 22:51N 02°36' W 178°24'8 8.6 080 / 201011.4 28.6 28.1
2017-Apr-12 21:52N 02°30' W 178°18'8 8.6 080 / 251011.7 27.4 28.1
2017-Apr-12 20:53N 02°24' W 178°12'1313.6 060 / 161011.9 28.6 28.0
2017-Apr-12 19:54N 02°12' W 178°06'1313.6 060 / 181011.6 28.4 28.1
2017-Apr-12 18:55N 02°06' W 177°54'8 8.6 070 / 181011.2 28.4 28.1
2017-Apr-12 17:56N 02°00' W 177°48'8 8.6 080 / 161009.8 27.9 28.1
2017-Apr-12 16:57N 01°54' W 177°42'1313.6 090 / 141009.1 27.2 28.1
2017-Apr-12 15:58N 01°42' W 177°36'8 8.6 060 / 101009.8 26.6 28.1
2017-Apr-12 14:59N 01°36' W 177°30'8 8.5 050 / 221009.7 26.3 28.1
2017-Apr-12 13:59N 01°30' W 177°24'1311.0 010 / 111010.4 28.0 28.1
2017-Apr-12 12:46N 01°18' W 177°18'1317.5 030 / 41010.7 28.4 28.1
2017-Apr-12 12:00N 01°12' W 177°06'0 0.0 140 / 51009.7 5.4 27.525.5-28.1
2017-Apr-12 11:47N 01°12' W 177°06'8 9.1 130 / 51011.2 28.5 28.1
2017-Apr-12 10:51N 01°06' W 177°00'8 8.6 120 / 51011.6 28.6 28.1
2017-Apr-12 09:52N 01°00' W 176°54'1313.6 100 / 61012.1 28.6 28.2
2017-Apr-12 08:53N 00°48' W 176°48'0 0.0 110 / 81011.5 28.5 28.1
2017-Apr-12 07:54N 00°48' W 176°48'6 6.1 110 / 51010.6 28.6 28.1
2017-Apr-12 06:55N 00°48' W 176°42'6 6.1 100 / 91010.0 28.7 28.1
2017-Apr-12 05:56N 00°48' W 176°36'0 0.0 100 / 81009.2 28.834.228.0
2017-Apr-12 04:57N 00°48' W 176°36'0 0.0 110 / 101008.3 29.025.028.1
2017-Apr-12 03:57N 00°48' W 176°36'0 0.0 090 / 91007.5 29.3 28.0
2017-Apr-12 02:58N 00°48' W 176°36'0 0.0 080 / 101007.5 29.7 28.0
2017-Apr-12 01:59N 00°48' W 176°36'0 0.0 080 / 91007.6 29.3 27.9
2017-Apr-12 00:46N 00°48' W 176°36'6 7.8 100 / 81008.4 29.2 28.0
2017-Apr-12 00:00N 00°48' W 176°30'6 5.0 120 / 91007.8 5.4 27.525.5-27.9
2017-Apr-11 22:48N 00°48' W 176°36'0 0.0 120 / 91010.1 29.8 27.8
2017-Apr-11 21:49N 00°48' W 176°36'0 0.0 130 / 71010.8 28.3 27.8
2017-Apr-11 20:50N 00°48' W 176°36'0 0.0 110 / 71011.0 27.9 27.7
2017-Apr-11 19:51N 00°48' W 176°36'0 0.0 110 / 111010.4 27.9 27.7
2017-Apr-11 18:52N 00°48' W 176°36'0 0.0 090 / 201009.7 25.2 27.7
2017-Apr-11 17:52N 00°48' W 176°36'0 0.0 120 / 81008.8 28.2 27.8
2017-Apr-11 16:53N 00°48' W 176°36'0 0.0 150 / 71008.1 28.0 28.0
2017-Apr-11 15:54N 00°48' W 176°36'0 0.0 120 / 61007.8 27.9 28.2
2017-Apr-11 14:55N 00°48' W 176°36'6 6.1 110 / 71008.0 28.0 27.9
2017-Apr-11 13:56N 00°42' W 176°36'6 6.1 130 / 111008.0 28.0 28.0
2017-Apr-11 12:57N 00°36' W 176°36'1314.1 120 / 121008.7 28.1 28.0
2017-Apr-11 12:00N 00°30' W 176°24'6180.0 100 / 141008.6 5.4 27.025.6-28.0
2017-Apr-11 11:58N 00°30' W 176°30'6 6.1 120 / 141009.9 28.6 28.0
2017-Apr-11 10:59N 00°24' W 176°30'1212.2 130 / 131010.6 28.5 28.3
2017-Apr-11 10:00N 00°12' W 176°30'0 0.0 120 / 151010.7 28.7 28.0
2017-Apr-11 08:49N 00°12' W 176°30'6 6.0 120 / 61010.5 28.2 27.8
2017-Apr-11 07:49N 00°12' W 176°36'6 6.1 120 / 111009.7 28.7 28.1
2017-Apr-11 06:50N 00°12' W 176°42'1214.4 130 / 91008.8 28.6 28.0
2017-Apr-11 06:00N 00°12' W 176°30'640.0 100 / 91006.910.8 28.026.0-28.0
2017-Apr-11 05:51N 00°12' W 176°36'6 6.1 100 / 91008.3 29.0 27.9
2017-Apr-11 04:52N 00°12' W 176°30'0 0.0 090 / 91007.3 29.1 28.0
2017-Apr-11 03:53N 00°12' W 176°30'0 0.0 080 / 111006.7 29.237.228.0
2017-Apr-11 02:54N 00°12' W 176°30'0 0.0 070 / 81006.6 30.1 28.1
2017-Apr-11 01:55N 00°12' W 176°30'0 0.0 110 / 141006.9 29.237.228.0
2017-Apr-11 00:56N 00°12' W 176°30'0 0.0 100 / 141007.5 29.346.228.0
2017-Apr-10 22:58N 00°12' W 176°30'0 0.0 100 / 151009.4 29.248.428.0
2017-Apr-10 21:59N 00°12' W 176°30'0 0.0 090 / 141009.8 29.348.527.8
2017-Apr-10 20:59N 00°12' W 176°30'0 0.0 080 / 121010.0 29.3 27.7
2017-Apr-10 19:46N 00°12' W 176°30'0 0.0 090 / 131009.7 29.135.127.7
2017-Apr-10 18:47N 00°12' W 176°30'810.8 080 / 101008.9 28.438.727.8
2017-Apr-10 18:00N 00°06' W 176°24'630.0 100 / 131006.7 5.4 27.024.3-27.8
2017-Apr-10 17:48N 00°06' W 176°30'0 0.0 100 / 171008.0 28.119.227.7
2017-Apr-10 16:49N 00°06' W 176°30'6 6.1 090 / 141007.7 28.7 27.7
2017-Apr-10 15:50N 00°06' W 176°24'6 6.1 080 / 141007.3 28.4 27.7
2017-Apr-10 14:51N 00°06' W 176°18'6 6.0 080 / 131007.6 28.4 27.8
2017-Apr-10 13:51N 00°06' W 176°12'6 6.1 080 / 131008.0 28.3 27.8
2017-Apr-10 12:52N 00°06' W 176°06'1213.8 080 / 131008.8 28.0 27.8
2017-Apr-10 12:00N 00°06' W 175°54'651.4 080 / 131008.5 5.4 26.525.1-27.8
2017-Apr-10 11:53N 00°06' W 176°00'6 6.1 080 / 121009.8 28.2 27.8
2017-Apr-10 10:54N 00°06' W 175°54'6 6.1 080 / 131010.5 28.8 27.8
2017-Apr-10 09:55N 00°06' W 175°48'6 6.1 080 / 121010.8 29.0 27.8
2017-Apr-10 08:56N 00°06' W 175°42'6 6.1 090 / 121010.5 28.7 27.8
2017-Apr-10 07:57N 00°06' W 175°36'6 6.1 090 / 131010.0 28.4 27.8
2017-Apr-10 06:58N 00°06' W 175°30'1818.6 080 / 121009.4 28.6 27.9
2017-Apr-10 06:00N 00°06' W 175°12'6360.0 080 / 131007.310.8 27.525.5-27.9
2017-Apr-10 05:59N 00°06' W 175°18'6 6.1 080 / 131008.8 28.8 27.9
2017-Apr-10 05:00N 00°06' W 175°12'1311.0 080 / 121008.1 30.7 27.9
2017-Apr-10 03:47N 00°00' W 175°00'6 6.1 080 / 121007.7 31.7 27.9
2017-Apr-10 02:48N 00°00' W 174°54'1212.0 090 / 121007.6 32.4 27.9
2017-Apr-10 01:48N 00°00' W 174°42'6 6.1 090 / 131007.8 32.0 27.9
2017-Apr-10 00:49N 00°00' W 174°36'1822.0 080 / 111008.5 31.9 27.9
2017-Apr-10 00:00N 00°00' W 174°18'0 0.0 080 / 131008.0 5.4 27.525.5-27.8
2017-Apr-09 22:51N 00°00' W 174°18'1212.2 080 / 121010.2 31.1 27.7
2017-Apr-09 21:52N 00°00' W 174°06'6 6.1 080 / 121010.7 31.1 27.7
2017-Apr-09 20:53N 00°00' W 174°00'6 6.1 080 / 121011.1 30.8 27.6
2017-Apr-09 19:54N 00°00' W 173°54'1212.2 080 / 121010.6 30.8 27.6
2017-Apr-09 18:55N 00°00' W 173°42'1213.1 090 / 121010.3 29.6 27.6
2017-Apr-09 18:00N 00°00' W 173°30'690.0 080 / 111008.1 5.4 26.525.1-27.6
2017-Apr-09 17:56N 00°00' W 173°36'1212.2 080 / 131009.6 28.4 27.6
2017-Apr-09 16:57N 00°00' W 173°24'6 6.1 080 / 121009.0 28.3 27.7
2017-Apr-09 15:58N 00°00' W 173°18'1212.0 090 / 131008.7 28.5 27.7
2017-Apr-09 14:58N 00°00' W 173°06'6 6.1 090 / 141008.7 28.5 27.7
2017-Apr-09 13:59N 00°00' W 173°00'1212.2 090 / 141009.0 28.4 27.7
2017-Apr-09 13:00N 00°00' W 172°48'1212.0 090 / 141009.5 28.7 27.8
2017-Apr-09 12:00N 00°00' W 172°36'627.7 090 / 121009.2 5.4 27.025.0-27.9
2017-Apr-09 11:47N 00°00' W 172°42'1212.2 090 / 131010.6 28.6 27.9
2017-Apr-09 10:48N 00°00' W 172°30'1212.2 090 / 121011.3 28.9 27.9
2017-Apr-09 09:49N 00°00' W 172°18'6 6.1 090 / 121011.5 28.6 28.0
2017-Apr-09 08:50N 00°00' W 172°12'1212.2 090 / 121011.3 28.7 28.0
2017-Apr-09 07:51N 00°00' W 172°00'6 6.1 090 / 111011.0 28.6 28.0
2017-Apr-09 06:52N 00°00' W 171°54'1213.8 090 / 111010.4 28.7 28.1
2017-Apr-09 06:00N 00°00' W 171°42'0 0.0 090 / 111008.510.8 27.525.5-28.1
2017-Apr-09 05:53N 00°00' W 171°42'6 6.1 090 / 101009.8 28.9 28.1
2017-Apr-09 04:54N 00°00' W 171°36'1212.2 090 / 121009.2 31.3 28.1
2017-Apr-09 03:55N 00°00' W 171°24'6 6.1 090 / 121008.8 32.7 28.1
2017-Apr-09 02:56N 00°00' W 171°18'1212.0 090 / 111008.7 34.0 28.1
2017-Apr-09 01:56N 00°00' W 171°06'6 6.1 090 / 101009.0 34.1 28.1
2017-Apr-09 00:57N 00°00' W 171°00'1212.6 090 / 111009.6 33.4 28.0
2017-Apr-09 00:00N 00°00' W 170°48'6 5.9 090 / 111009.6 5.4 29.825.8-27.9
2017-Apr-08 22:59N 00°00' W 170°42'1212.2 100 / 121011.6 32.5 27.8
2017-Apr-08 22:00N 00°00' W 170°30'6 4.9 090 / 111012.0 32.5 27.6
2017-Apr-08 20:47N 00°00' W 170°24'1212.2 090 / 131012.4 32.1 27.6
2017-Apr-08 19:48N 00°00' W 170°12'6 6.1 090 / 131012.2 31.3 27.5
2017-Apr-08 18:49N 00°00' W 170°06'1822.0 090 / 141011.6 29.6 27.5
2017-Apr-08 18:00N 00°00' W 169°48'632.7 090 / 131009.5 5.4 26.925.1-27.5
2017-Apr-08 17:49N 00°00' W 169°54'6 6.1 090 / 131010.9 29.3 27.5
2017-Apr-08 16:50N 00°00' W 169°48'1212.2 090 / 131010.2 28.1 27.5
2017-Apr-08 15:51N 00°00' W 169°36'6 6.1 090 / 141009.8 28.1 27.5
2017-Apr-08 14:52N 00°00' W 169°30'1212.2 080 / 141009.7 28.2 27.5
2017-Apr-08 13:53N 00°00' W 169°18'6 6.1 090 / 121009.9 28.6 27.5
2017-Apr-08 12:54N 00°00' W 169°12'1213.3 080 / 101010.2 28.3 27.6
2017-Apr-08 12:00N 00°00' W 169°00'0 0.0 090 / 91009.4 5.4 26.325.2-27.5
2017-Apr-08 11:54N 00°00' W 169°00'8 8.6 090 / 101010.8 28.0 27.5
2017-Apr-08 10:55S 00°06' W 168°54'6 6.1 090 / 111011.6 28.2 27.6
2017-Apr-08 09:56S 00°06' W 168°48'1212.2 090 / 101012.1 28.4 27.6
2017-Apr-08 08:57S 00°06' W 168°36'6 6.0 090 / 101011.9 28.4 27.6
2017-Apr-08 07:57S 00°06' W 168°30'1210.1 090 / 101011.5 28.4 27.7
2017-Apr-08 06:46S 00°06' W 168°18'1317.5 090 / 91010.9 28.1 27.7
2017-Apr-08 06:00N 00°00' W 168°06'839.2 090 / 91010.110.8 28.026.7-27.8
2017-Apr-08 05:47S 00°06' W 168°12'1212.2 090 / 91010.0 28.4 27.8
2017-Apr-08 04:48S 00°06' W 168°00'6 6.1 090 / 111009.5 30.5 27.8
2017-Apr-08 03:49S 00°06' W 167°54'1212.2 080 / 111009.1 31.9 27.8
2017-Apr-08 02:50S 00°06' W 167°42'6 6.1 090 / 121009.1 32.2 27.9
2017-Apr-08 01:51S 00°06' W 167°36'1212.0 090 / 101009.7 33.3 27.9
2017-Apr-08 00:51S 00°06' W 167°24'1315.8 100 / 111010.3 29.9 27.9
2017-Apr-08 00:00N 00°00' W 167°12'8 7.6 110 / 131010.4 5.4 28.026.0-27.9
2017-Apr-07 22:53S 00°06' W 167°06'6 6.1 100 / 121012.7 31.8 27.8
2017-Apr-07 21:54S 00°06' W 167°00'6 6.1 100 / 111013.5 30.3 27.7
2017-Apr-07 20:55S 00°06' W 166°54'1212.2 100 / 111014.0 32.0 27.6
2017-Apr-07 19:56S 00°06' W 166°42'1212.2 100 / 111014.1 32.2 27.6
2017-Apr-07 18:57S 00°06' W 166°30'6 6.1 090 / 101013.3 30.3 27.5
2017-Apr-07 17:58S 00°06' W 166°24'1212.2 100 / 91012.5 28.2 27.6
2017-Apr-07 16:59S 00°06' W 166°12'12 9.9 100 / 91011.6 27.9 27.6
2017-Apr-07 15:46S 00°06' W 166°00'1212.2 100 / 91011.4 27.8 27.6
2017-Apr-07 14:47S 00°06' W 165°48'8 8.6 100 / 91011.4 27.9 27.6
2017-Apr-07 13:48S 00°12' W 165°42'1212.2 090 / 81011.2 27.9 27.7
2017-Apr-07 12:49S 00°12' W 165°30'1316.4 090 / 101011.6 28.2 27.6
2017-Apr-07 12:00S 00°06' W 165°18'636.0 080 / 91010.4 5.4 26.224.6-27.6
2017-Apr-07 11:50S 00°12' W 165°18'1212.2 090 / 91012.1 27.8 27.6
2017-Apr-07 10:51S 00°12' W 165°06'6 6.1 080 / 91012.6 27.6 27.6
2017-Apr-07 09:52S 00°12' W 165°00'1212.2 090 / 101013.0 27.5 27.6
2017-Apr-07 08:53S 00°12' W 164°48'1212.0 100 / 111013.1 27.7 27.6
2017-Apr-07 07:53S 00°12' W 164°36'6 6.1 080 / 101012.7 27.8 27.6
2017-Apr-07 06:54S 00°12' W 164°30'1212.2 090 / 111012.2 27.9 27.6
2017-Apr-07 05:55S 00°12' W 164°18'1212.2 090 / 111011.3 28.4 27.6
2017-Apr-07 04:56S 00°12' W 164°06'6 6.1 100 / 121010.8 29.6 27.6
2017-Apr-07 03:57S 00°12' W 164°00'1212.2 100 / 121010.2 31.8 27.6
2017-Apr-07 02:58S 00°12' W 163°48'6 6.1 100 / 101009.5 31.1 27.6
2017-Apr-07 01:59S 00°12' W 163°42'12 9.9 100 / 81009.1 31.4 27.5
2017-Apr-07 00:46S 00°12' W 163°30'1317.5 110 / 121009.5 30.6 27.5
2017-Apr-07 00:00S 00°06' W 163°18'   100 / 131008.6 5.4 27.524.8-27.4
Track history (hours):
 
Tides and Currents Weather Stations Pressure Air Temp Water Temp Dewpoint Dewpoint Depression Visibility Wind Speed Wind Dir Waves Ship Positions

Oceanographic research ship Hi'Ialakai (USA)

Detailed information on ship capabilities available from University of Delaware's Ocean Information Center.

Last reported at 2017-Apr-16 22:50 UTC. Time now 2017-Apr-23 07:56 UTC.
Position N 14°12' E 171°12'.

Type: Passenger vessel. MMSI: 368926089.

Wind from 100 at 16 knots

Barometer 1015.9 mb
Air temperature 29.8 ° C
Water temperature 27.7 ° C

Date/timePositionNaut miles runAvg speedWind from/ knotsBaromVisibWave heightAir tempDewpointWater temp
2017-Apr-16 22:50N 14°12' E 171°12'8 8.5 100 / 161015.9 29.8 27.7
2017-Apr-16 21:51N 14°06' E 171°18'8 8.5 100 / 171016.0 29.7 27.6
2017-Apr-16 20:52N 14°00' E 171°24'1313.6 090 / 171015.7 29.3 27.6
2017-Apr-16 19:53N 13°48' E 171°30'8 8.5 110 / 161015.2 29.0 27.6
2017-Apr-16 18:54N 13°42' E 171°36'8 9.3 110 / 161014.8 27.0 27.7
2017-Apr-16 18:00N 13°36' E 171°42'0 0.0 100 / 181012.710.8 27.024.3-27.7
2017-Apr-16 17:55N 13°36' E 171°42'1313.3 090 / 171014.1 27.8 27.7
2017-Apr-16 16:56N 13°30' E 171°54'8 8.4 090 / 171013.8 28.1 27.7
2017-Apr-16 15:56N 13°24' E 172°00'1313.6 080 / 181013.5 27.6 27.8
2017-Apr-16 14:57N 13°12' E 172°06'8 8.5 100 / 161013.5 27.9 27.8
2017-Apr-16 13:58N 13°06' E 172°12'8 8.5 100 / 171013.7 27.6 27.8
2017-Apr-16 12:59N 13°00' E 172°18'1313.6 100 / 171013.9 28.3 27.9
2017-Apr-16 12:00N 12°48' E 172°24'0 0.0 090 / 191012.6 5.4 27.423.4-27.9
2017-Apr-16 11:46N 12°48' E 172°24'8 8.5 090 / 181014.1 28.2 27.9
2017-Apr-16 10:47N 12°42' E 172°30'1313.4 090 / 191014.3 28.2 27.9
2017-Apr-16 09:48N 12°36' E 172°42'8 8.5 090 / 191014.0 28.2 27.9
2017-Apr-16 08:49N 12°30' E 172°48'8 8.5 100 / 171013.6 28.3 27.9
2017-Apr-16 07:50N 12°24' E 172°54'1313.6 080 / 201013.0 28.2 28.0
2017-Apr-16 06:51N 12°12' E 173°00'8 8.5 090 / 201012.3 28.6 27.9
2017-Apr-16 05:52N 12°06' E 173°06'8 8.5 100 / 181011.8 29.3 27.9
2017-Apr-16 04:53N 12°00' E 173°12'8 8.5 080 / 201011.3 29.6 27.9
2017-Apr-16 03:54N 11°54' E 173°18'8 8.4 080 / 221011.3 29.5 27.9
2017-Apr-16 02:54N 11°48' E 173°24'1313.6 070 / 221011.3 29.2 27.9
2017-Apr-16 01:55N 11°36' E 173°30'8 8.5 080 / 211011.8 29.8 28.0
2017-Apr-16 00:56N 11°30' E 173°36'8 9.0 080 / 201012.6 29.6 28.0
2017-Apr-16 00:00N 11°24' E 173°42'8 8.1 090 / 191012.0 5.4 27.524.1-28.1
2017-Apr-15 22:58N 11°18' E 173°48'8 8.5 090 / 191014.2 30.0 27.9
2017-Apr-15 21:59N 11°12' E 173°54'1713.8 090 / 191014.3 29.7 27.9
2017-Apr-15 20:46N 11°00' E 174°06'8 8.6 090 / 201014.2 29.5 28.0
2017-Apr-15 19:47N 10°54' E 174°12'8 8.6 080 / 211013.8 29.0 28.1
2017-Apr-15 18:48N 10°48' E 174°18'1313.6 070 / 221013.1 28.5 28.1
2017-Apr-15 17:49N 10°36' E 174°24'8 8.6 070 / 211012.8 28.1 28.1
2017-Apr-15 16:50N 10°30' E 174°30'1313.2 080 / 221012.3 28.5 28.1
2017-Apr-15 15:50N 10°24' E 174°42'8 8.6 060 / 241011.9 28.5 28.2
2017-Apr-15 14:51N 10°18' E 174°48'8 8.6 070 / 221012.0 28.8 28.3
2017-Apr-15 13:52N 10°12' E 174°54'8 8.6 070 / 221012.2 28.3 28.3
2017-Apr-15 12:53N 10°06' E 175°00'1212.2 080 / 201012.6 28.7 28.4
2017-Apr-15 11:54N 09°54' E 175°00'1313.5 070 / 241013.1 29.1 28.7
2017-Apr-15 10:55N 09°48' E 175°12'8 8.6 070 / 221013.5 28.8 28.5
2017-Apr-15 09:56N 09°42' E 175°18'8 8.6 070 / 201013.7 28.8 28.7
2017-Apr-15 08:57N 09°36' E 175°24'8 8.6 070 / 201013.0 28.9 28.7
2017-Apr-15 07:58N 09°30' E 175°30'1313.6 070 / 211012.7 28.8 28.7
2017-Apr-15 06:59N 09°18' E 175°36'8 8.6 070 / 221012.2 28.8 28.8
2017-Apr-15 06:00N 09°12' E 175°42'0 0.0 060 / 211010.310.8 28.024.6-28.9
2017-Apr-15 05:59N 09°12' E 175°42'8 6.9 060 / 201011.9 29.0 28.9
2017-Apr-15 04:46N 09°06' E 175°48'1313.6 070 / 211011.2 29.3 28.9
2017-Apr-15 03:47N 08°54' E 175°54'8 8.6 070 / 201011.3 30.3 28.9
2017-Apr-15 02:48N 08°48' E 176°00'8 8.6 070 / 201011.5 30.0 29.0
2017-Apr-15 01:49N 08°42' E 176°06'8 8.6 070 / 211011.9 29.7 28.9
2017-Apr-15 00:50N 08°36' E 176°12'1316.0 070 / 211012.4 30.1 28.9
2017-Apr-15 00:00N 08°30' E 176°24'8 7.4 080 / 241011.7 5.4 28.024.6-28.8
2017-Apr-14 22:52N 08°24' E 176°30'1313.6 080 / 221013.8 29.9 28.8
2017-Apr-14 21:53N 08°12' E 176°36'8 8.6 070 / 231013.9 29.4 28.5
2017-Apr-14 20:54N 08°06' E 176°42'8 8.6 070 / 231014.3 29.3 28.4
2017-Apr-14 19:55N 08°00' E 176°48'8 8.4 070 / 241013.1 29.5 28.6
2017-Apr-14 18:55N 07°54' E 176°54'8 8.6 070 / 261012.1 29.1 28.5
2017-Apr-14 17:56N 07°48' E 177°00'8 8.6 060 / 261011.7 28.8 28.9
2017-Apr-14 16:57N 07°42' E 177°06'8 8.6 060 / 261010.7 28.6 28.9
2017-Apr-14 15:58N 07°36' E 177°12'1313.6 050 / 301010.5 27.4 28.9
2017-Apr-14 14:59N 07°24' E 177°18'8 8.6 070 / 251011.1 29.3 28.9
2017-Apr-14 14:00N 07°18' E 177°24'8 6.9 060 / 201011.4 26.3 28.9
2017-Apr-14 12:47N 07°12' E 177°30'810.8 080 / 251012.1 27.0 29.0
2017-Apr-14 12:00N 07°06' E 177°36'0 0.0 050 / 241010.6 5.4 26.525.1-29.2
2017-Apr-14 11:50N 07°06' E 177°36'8 8.9 050 / 231012.1 28.6 29.1
2017-Apr-14 10:53N 07°00' E 177°42'1313.6 070 / 221012.9 26.7 29.0
2017-Apr-14 09:54N 06°48' E 177°48'8 8.6 050 / 211013.0 28.6 29.0
2017-Apr-14 08:55N 06°42' E 177°54'8 8.6 070 / 161012.5 29.7 29.1
2017-Apr-14 07:56N 06°36' E 178°00'8 8.5 070 / 181012.0 29.7 29.1
2017-Apr-14 06:56N 06°30' E 178°06'8 9.1 080 / 161011.5 29.7 29.0
2017-Apr-14 06:00N 06°24' E 178°12'0 0.0 070 / 151009.410.8 29.026.3-29.0
2017-Apr-14 05:57N 06°24' E 178°12'1313.6 080 / 151010.9 29.8 29.0
2017-Apr-14 04:58N 06°12' E 178°18'8 8.6 060 / 181010.4 29.9 29.1
2017-Apr-14 03:59N 06°06' E 178°24'1311.0 060 / 181009.9 29.8 29.0
2017-Apr-14 02:46N 06°00' E 178°36'8 8.6 060 / 201009.9 30.0 28.9
2017-Apr-14 01:47N 05°54' E 178°42'1313.6 060 / 201010.5 30.2 28.9
2017-Apr-14 00:48N 05°42' E 178°48'17 8.6 060 / 221010.9 30.4 28.8
2017-Apr-13 22:50N 05°30' E 179°00'8 8.5 060 / 231011.8 30.1 28.7
2017-Apr-13 21:50N 05°24' E 179°06'8 8.6 060 / 231012.3 30.2 28.7
2017-Apr-13 20:51N 05°18' E 179°12'8 8.6 060 / 171012.5 29.7 28.7
2017-Apr-13 19:52N 05°12' E 179°18'1313.6 070 / 231012.1 29.3 28.6
2017-Apr-13 18:53N 05°00' E 179°24'8 9.6 060 / 201011.4 29.6 28.5
2017-Apr-13 18:00N 04°54' E 179°30'0 0.0 060 / 191009.510.8 28.525.1-28.5
2017-Apr-13 17:54N 04°54' E 179°30'8 8.6 060 / 181010.9 29.0 28.5
2017-Apr-13 16:55N 04°48' E 179°36'8 8.6 110 / 131010.6 28.7 28.7
2017-Apr-13 15:56N 04°42' E 179°42'8 8.6 070 / 121010.5 29.1 28.7
2017-Apr-13 14:57N 04°36' E 179°48'8 8.6 070 / 111010.4 29.1 28.7
2017-Apr-13 13:58N 04°30' E 179°54'1717.2 080 / 111010.8 28.9 28.7
2017-Apr-13 12:59N 04°18' W 179°54'8 8.6 070 / 111011.2 28.9 28.4
2017-Apr-13 12:00N 04°12' W 179°48'8 7.0 080 / 131011.9 29.1 28.4
2017-Apr-13 10:47N 04°06' W 179°42'1313.4 080 / 121012.7 29.0 28.4
2017-Apr-13 09:47N 03°54' W 179°36'1313.6 090 / 151012.4 29.0 28.5
2017-Apr-13 08:48N 03°48' W 179°24'8 8.6 090 / 171011.8 28.9 28.5
2017-Apr-13 07:49N 03°42' W 179°18'25 8.6 080 / 211011.4 28.9 28.5
2017-Apr-13 04:52N 03°24' W 179°00'1313.6 070 / 211010.1 29.2 28.5
2017-Apr-13 03:53N 03°12' W 178°54'25 8.3 090 / 191009.9 28.7 28.5
2017-Apr-13 00:50N 02°54' W 178°36'1720.4 110 / 161010.1 29.9 28.5
2017-Apr-13 00:00N 02°42' W 178°24'6 5.2 100 / 191009.5 5.4 27.325.5-28.3
2017-Apr-12 22:51N 02°36' W 178°24'8 8.6 080 / 201011.4 28.6 28.1
2017-Apr-12 21:52N 02°30' W 178°18'8 8.6 080 / 251011.7 27.4 28.1
2017-Apr-12 20:53N 02°24' W 178°12'1313.6 060 / 161011.9 28.6 28.0
2017-Apr-12 19:54N 02°12' W 178°06'1313.6 060 / 181011.6 28.4 28.1
2017-Apr-12 18:55N 02°06' W 177°54'8 8.6 070 / 181011.2 28.4 28.1
2017-Apr-12 17:56N 02°00' W 177°48'8 8.6 080 / 161009.8 27.9 28.1
2017-Apr-12 16:57N 01°54' W 177°42'1313.6 090 / 141009.1 27.2 28.1
2017-Apr-12 15:58N 01°42' W 177°36'8 8.6 060 / 101009.8 26.6 28.1
2017-Apr-12 14:59N 01°36' W 177°30'8 8.5 050 / 221009.7 26.3 28.1
2017-Apr-12 13:59N 01°30' W 177°24'1311.0 010 / 111010.4 28.0 28.1
2017-Apr-12 12:46N 01°18' W 177°18'1317.5 030 / 41010.7 28.4 28.1
2017-Apr-12 12:00N 01°12' W 177°06'0 0.0 140 / 51009.7 5.4 27.525.5-28.1
2017-Apr-12 11:47N 01°12' W 177°06'8 9.1 130 / 51011.2 28.5 28.1
2017-Apr-12 10:51N 01°06' W 177°00'8 8.6 120 / 51011.6 28.6 28.1
2017-Apr-12 09:52N 01°00' W 176°54'1313.6 100 / 61012.1 28.6 28.2
2017-Apr-12 08:53N 00°48' W 176°48'0 0.0 110 / 81011.5 28.5 28.1
2017-Apr-12 07:54N 00°48' W 176°48'6 6.1 110 / 51010.6 28.6 28.1
2017-Apr-12 06:55N 00°48' W 176°42'6 6.1 100 / 91010.0 28.7 28.1
2017-Apr-12 05:56N 00°48' W 176°36'0 0.0 100 / 81009.2 28.834.228.0
2017-Apr-12 04:57N 00°48' W 176°36'0 0.0 110 / 101008.3 29.025.028.1
2017-Apr-12 03:57N 00°48' W 176°36'0 0.0 090 / 91007.5 29.3 28.0
2017-Apr-12 02:58N 00°48' W 176°36'0 0.0 080 / 101007.5 29.7 28.0
2017-Apr-12 01:59N 00°48' W 176°36'0 0.0 080 / 91007.6 29.3 27.9
2017-Apr-12 00:46N 00°48' W 176°36'6 7.8 100 / 81008.4 29.2 28.0
2017-Apr-12 00:00N 00°48' W 176°30'6 5.0 120 / 91007.8 5.4 27.525.5-27.9
2017-Apr-11 22:48N 00°48' W 176°36'0 0.0 120 / 91010.1 29.8 27.8
2017-Apr-11 21:49N 00°48' W 176°36'0 0.0 130 / 71010.8 28.3 27.8
2017-Apr-11 20:50N 00°48' W 176°36'0 0.0 110 / 71011.0 27.9 27.7
2017-Apr-11 19:51N 00°48' W 176°36'0 0.0 110 / 111010.4 27.9 27.7
2017-Apr-11 18:52N 00°48' W 176°36'0 0.0 090 / 201009.7 25.2 27.7
2017-Apr-11 17:52N 00°48' W 176°36'0 0.0 120 / 81008.8 28.2 27.8
2017-Apr-11 16:53N 00°48' W 176°36'0 0.0 150 / 71008.1 28.0 28.0
2017-Apr-11 15:54N 00°48' W 176°36'0 0.0 120 / 61007.8 27.9 28.2
2017-Apr-11 14:55N 00°48' W 176°36'6 6.1 110 / 71008.0 28.0 27.9
2017-Apr-11 13:56N 00°42' W 176°36'6 6.1 130 / 111008.0 28.0 28.0
2017-Apr-11 12:57N 00°36' W 176°36'1314.1 120 / 121008.7 28.1 28.0
2017-Apr-11 12:00N 00°30' W 176°24'6180.0 100 / 141008.6 5.4 27.025.6-28.0
2017-Apr-11 11:58N 00°30' W 176°30'6 6.1 120 / 141009.9 28.6 28.0
2017-Apr-11 10:59N 00°24' W 176°30'1212.2 130 / 131010.6 28.5 28.3
2017-Apr-11 10:00N 00°12' W 176°30'0 0.0 120 / 151010.7 28.7 28.0
2017-Apr-11 08:49N 00°12' W 176°30'6 6.0 120 / 61010.5 28.2 27.8
2017-Apr-11 07:49N 00°12' W 176°36'6 6.1 120 / 111009.7 28.7 28.1
2017-Apr-11 06:50N 00°12' W 176°42'1214.4 130 / 91008.8 28.6 28.0
2017-Apr-11 06:00N 00°12' W 176°30'640.0 100 / 91006.910.8 28.026.0-28.0
2017-Apr-11 05:51N 00°12' W 176°36'6 6.1 100 / 91008.3 29.0 27.9
2017-Apr-11 04:52N 00°12' W 176°30'0 0.0 090 / 91007.3 29.1 28.0
2017-Apr-11 03:53N 00°12' W 176°30'0 0.0 080 / 111006.7 29.237.228.0
2017-Apr-11 02:54N 00°12' W 176°30'0 0.0 070 / 81006.6 30.1 28.1
2017-Apr-11 01:55N 00°12' W 176°30'0 0.0 110 / 141006.9 29.237.228.0
2017-Apr-11 00:56N 00°12' W 176°30'0 0.0 100 / 141007.5 29.346.228.0
2017-Apr-10 22:58N 00°12' W 176°30'0 0.0 100 / 151009.4 29.248.428.0
2017-Apr-10 21:59N 00°12' W 176°30'0 0.0 090 / 141009.8 29.348.527.8
2017-Apr-10 20:59N 00°12' W 176°30'0 0.0 080 / 121010.0 29.3 27.7
2017-Apr-10 19:46N 00°12' W 176°30'0 0.0 090 / 131009.7 29.135.127.7
2017-Apr-10 18:47N 00°12' W 176°30'810.8 080 / 101008.9 28.438.727.8
2017-Apr-10 18:00N 00°06' W 176°24'630.0 100 / 131006.7 5.4 27.024.3-27.8
2017-Apr-10 17:48N 00°06' W 176°30'0 0.0 100 / 171008.0 28.119.227.7
2017-Apr-10 16:49N 00°06' W 176°30'6 6.1 090 / 141007.7 28.7 27.7
2017-Apr-10 15:50N 00°06' W 176°24'6 6.1 080 / 141007.3 28.4 27.7
2017-Apr-10 14:51N 00°06' W 176°18'6 6.0 080 / 131007.6 28.4 27.8
2017-Apr-10 13:51N 00°06' W 176°12'6 6.1 080 / 131008.0 28.3 27.8
2017-Apr-10 12:52N 00°06' W 176°06'1213.8 080 / 131008.8 28.0 27.8
2017-Apr-10 12:00N 00°06' W 175°54'651.4 080 / 131008.5 5.4 26.525.1-27.8
2017-Apr-10 11:53N 00°06' W 176°00'6 6.1 080 / 121009.8 28.2 27.8
2017-Apr-10 10:54N 00°06' W 175°54'6 6.1 080 / 131010.5 28.8 27.8
2017-Apr-10 09:55N 00°06' W 175°48'6 6.1 080 / 121010.8 29.0 27.8
2017-Apr-10 08:56N 00°06' W 175°42'6 6.1 090 / 121010.5 28.7 27.8
2017-Apr-10 07:57N 00°06' W 175°36'6 6.1 090 / 131010.0 28.4 27.8
2017-Apr-10 06:58N 00°06' W 175°30'1818.6 080 / 121009.4 28.6 27.9
2017-Apr-10 06:00N 00°06' W 175°12'6360.0 080 / 131007.310.8 27.525.5-27.9
2017-Apr-10 05:59N 00°06' W 175°18'6 6.1 080 / 131008.8 28.8 27.9
2017-Apr-10 05:00N 00°06' W 175°12'1311.0 080 / 121008.1 30.7 27.9
2017-Apr-10 03:47N 00°00' W 175°00'6 6.1 080 / 121007.7 31.7 27.9
2017-Apr-10 02:48N 00°00' W 174°54'1212.0 090 / 121007.6 32.4 27.9
2017-Apr-10 01:48N 00°00' W 174°42'6 6.1 090 / 131007.8 32.0 27.9
2017-Apr-10 00:49N 00°00' W 174°36'1822.0 080 / 111008.5 31.9 27.9
2017-Apr-10 00:00N 00°00' W 174°18'0 0.0 080 / 131008.0 5.4 27.525.5-27.8
2017-Apr-09 22:51N 00°00' W 174°18'1212.2 080 / 121010.2 31.1 27.7
2017-Apr-09 21:52N 00°00' W 174°06'6 6.1 080 / 121010.7 31.1 27.7
2017-Apr-09 20:53N 00°00' W 174°00'6 6.1 080 / 121011.1 30.8 27.6
2017-Apr-09 19:54N 00°00' W 173°54'1212.2 080 / 121010.6 30.8 27.6
2017-Apr-09 18:55N 00°00' W 173°42'1213.1 090 / 121010.3 29.6 27.6
2017-Apr-09 18:00N 00°00' W 173°30'690.0 080 / 111008.1 5.4 26.525.1-27.6
2017-Apr-09 17:56N 00°00' W 173°36'1212.2 080 / 131009.6 28.4 27.6
2017-Apr-09 16:57N 00°00' W 173°24'6 6.1 080 / 121009.0 28.3 27.7
2017-Apr-09 15:58N 00°00' W 173°18'1212.0 090 / 131008.7 28.5 27.7
2017-Apr-09 14:58N 00°00' W 173°06'6 6.1 090 / 141008.7 28.5 27.7
2017-Apr-09 13:59N 00°00' W 173°00'1212.2 090 / 141009.0 28.4 27.7
2017-Apr-09 13:00N 00°00' W 172°48'1212.0 090 / 141009.5 28.7 27.8
2017-Apr-09 12:00N 00°00' W 172°36'627.7 090 / 121009.2 5.4 27.025.0-27.9
2017-Apr-09 11:47N 00°00' W 172°42'1212.2 090 / 131010.6 28.6 27.9
2017-Apr-09 10:48N 00°00' W 172°30'1212.2 090 / 121011.3 28.9 27.9
2017-Apr-09 09:49N 00°00' W 172°18'6 6.1 090 / 121011.5 28.6 28.0
2017-Apr-09 08:50N 00°00' W 172°12'1212.2 090 / 121011.3 28.7 28.0
2017-Apr-09 07:51N 00°00' W 172°00'6 6.1 090 / 111011.0 28.6 28.0
2017-Apr-09 06:52N 00°00' W 171°54'1213.8 090 / 111010.4 28.7 28.1
2017-Apr-09 06:00N 00°00' W 171°42'0 0.0 090 / 111008.510.8 27.525.5-28.1
2017-Apr-09 05:53N 00°00' W 171°42'6 6.1 090 / 101009.8 28.9 28.1
2017-Apr-09 04:54N 00°00' W 171°36'1212.2 090 / 121009.2 31.3 28.1
2017-Apr-09 03:55N 00°00' W 171°24'6 6.1 090 / 121008.8 32.7 28.1
2017-Apr-09 02:56N 00°00' W 171°18'1212.0 090 / 111008.7 34.0 28.1
2017-Apr-09 01:56N 00°00' W 171°06'6 6.1 090 / 101009.0 34.1 28.1
2017-Apr-09 00:57N 00°00' W 171°00'1212.6 090 / 111009.6 33.4 28.0
2017-Apr-09 00:00N 00°00' W 170°48'6 5.9 090 / 111009.6 5.4 29.825.8-27.9
2017-Apr-08 22:59N 00°00' W 170°42'1212.2 100 / 121011.6 32.5 27.8
2017-Apr-08 22:00N 00°00' W 170°30'6 4.9 090 / 111012.0 32.5 27.6
2017-Apr-08 20:47N 00°00' W 170°24'1212.2 090 / 131012.4 32.1 27.6
2017-Apr-08 19:48N 00°00' W 170°12'6 6.1 090 / 131012.2 31.3 27.5
2017-Apr-08 18:49N 00°00' W 170°06'1822.0 090 / 141011.6 29.6 27.5
2017-Apr-08 18:00N 00°00' W 169°48'632.7 090 / 131009.5 5.4 26.925.1-27.5
2017-Apr-08 17:49N 00°00' W 169°54'6 6.1 090 / 131010.9 29.3 27.5
2017-Apr-08 16:50N 00°00' W 169°48'1212.2 090 / 131010.2 28.1 27.5
2017-Apr-08 15:51N 00°00' W 169°36'6 6.1 090 / 141009.8 28.1 27.5
2017-Apr-08 14:52N 00°00' W 169°30'1212.2 080 / 141009.7 28.2 27.5
2017-Apr-08 13:53N 00°00' W 169°18'6 6.1 090 / 121009.9 28.6 27.5
2017-Apr-08 12:54N 00°00' W 169°12'1213.3 080 / 101010.2 28.3 27.6
2017-Apr-08 12:00N 00°00' W 169°00'0 0.0 090 / 91009.4 5.4 26.325.2-27.5
2017-Apr-08 11:54N 00°00' W 169°00'8 8.6 090 / 101010.8 28.0 27.5
2017-Apr-08 10:55S 00°06' W 168°54'6 6.1 090 / 111011.6 28.2 27.6
2017-Apr-08 09:56S 00°06' W 168°48'1212.2 090 / 101012.1 28.4 27.6
2017-Apr-08 08:57S 00°06' W 168°36'6 6.0 090 / 101011.9 28.4 27.6
2017-Apr-08 07:57S 00°06' W 168°30'1210.1 090 / 101011.5 28.4 27.7
2017-Apr-08 06:46S 00°06' W 168°18'1317.5 090 / 91010.9 28.1 27.7
2017-Apr-08 06:00N 00°00' W 168°06'839.2 090 / 91010.110.8 28.026.7-27.8
2017-Apr-08 05:47S 00°06' W 168°12'1212.2 090 / 91010.0 28.4 27.8
2017-Apr-08 04:48S 00°06' W 168°00'6 6.1 090 / 111009.5 30.5 27.8
2017-Apr-08 03:49S 00°06' W 167°54'1212.2 080 / 111009.1 31.9 27.8
2017-Apr-08 02:50S 00°06' W 167°42'6 6.1 090 / 121009.1 32.2 27.9
2017-Apr-08 01:51S 00°06' W 167°36'1212.0 090 / 101009.7 33.3 27.9
2017-Apr-08 00:51S 00°06' W 167°24'1315.8 100 / 111010.3 29.9 27.9
2017-Apr-08 00:00N 00°00' W 167°12'8 7.6 110 / 131010.4 5.4 28.026.0-27.9
2017-Apr-07 22:53S 00°06' W 167°06'6 6.1 100 / 121012.7 31.8 27.8
2017-Apr-07 21:54S 00°06' W 167°00'6 6.1 100 / 111013.5 30.3 27.7
2017-Apr-07 20:55S 00°06' W 166°54'1212.2 100 / 111014.0 32.0 27.6
2017-Apr-07 19:56S 00°06' W 166°42'1212.2 100 / 111014.1 32.2 27.6
2017-Apr-07 18:57S 00°06' W 166°30'6 6.1 090 / 101013.3 30.3 27.5
2017-Apr-07 17:58S 00°06' W 166°24'1212.2 100 / 91012.5 28.2 27.6
2017-Apr-07 16:59S 00°06' W 166°12'12 9.9 100 / 91011.6 27.9 27.6
2017-Apr-07 15:46S 00°06' W 166°00'1212.2 100 / 91011.4 27.8 27.6
2017-Apr-07 14:47S 00°06' W 165°48'8 8.6 100 / 91011.4 27.9 27.6
2017-Apr-07 13:48S 00°12' W 165°42'1212.2 090 / 81011.2 27.9 27.7
2017-Apr-07 12:49S 00°12' W 165°30'1316.4 090 / 101011.6 28.2 27.6
2017-Apr-07 12:00S 00°06' W 165°18'636.0 080 / 91010.4 5.4 26.224.6-27.6
2017-Apr-07 11:50S 00°12' W 165°18'1212.2 090 / 91012.1 27.8 27.6
2017-Apr-07 10:51S 00°12' W 165°06'6 6.1 080 / 91012.6 27.6 27.6
2017-Apr-07 09:52S 00°12' W 165°00'1212.2 090 / 101013.0 27.5 27.6
2017-Apr-07 08:53S 00°12' W 164°48'1212.0 100 / 111013.1 27.7 27.6
2017-Apr-07 07:53S 00°12' W 164°36'6 6.1 080 / 101012.7 27.8 27.6
2017-Apr-07 06:54S 00°12' W 164°30'1212.2 090 / 111012.2 27.9 27.6
2017-Apr-07 05:55S 00°12' W 164°18'1212.2 090 / 111011.3 28.4 27.6
2017-Apr-07 04:56S 00°12' W 164°06'6 6.1 100 / 121010.8 29.6 27.6
2017-Apr-07 03:57S 00°12' W 164°00'1212.2 100 / 121010.2 31.8 27.6
2017-Apr-07 02:58S 00°12' W 163°48'6 6.1 100 / 101009.5 31.1 27.6
2017-Apr-07 01:59S 00°12' W 163°42'12 9.9 100 / 81009.1 31.4 27.5
2017-Apr-07 00:46S 00°12' W 163°30'1317.5 110 / 121009.5 30.6 27.5
2017-Apr-07 00:00S 00°06' W 163°18'   100 / 131008.6 5.4 27.524.8-27.4

Dump ship's entire track history